sensor_id;sensor_type;location;lat;lon;timestamp;pressure;altitude;pressure_sealevel;temperature;humidity
21129;BME280;10722;51.910;8.352;2023-02-16T00:00:32;101724.06;;;3.00;100.00
21129;BME280;10722;51.910;8.352;2023-02-16T00:03:20;101724.75;;;2.98;100.00
21129;BME280;10722;51.910;8.352;2023-02-16T00:06:06;101723.47;;;2.91;100.00
21129;BME280;10722;51.910;8.352;2023-02-16T00:08:53;101713.31;;;2.92;100.00
21129;BME280;10722;51.910;8.352;2023-02-16T00:11:40;101719.53;;;2.96;100.00
21129;BME280;10722;51.910;8.352;2023-02-16T00:14:26;101716.00;;;2.94;100.00
21129;BME280;10722;51.910;8.352;2023-02-16T00:17:11;101713.63;;;2.97;100.00
21129;BME280;10722;51.910;8.352;2023-02-16T00:19:56;101712.44;;;3.05;100.00
21129;BME280;10722;51.910;8.352;2023-02-16T00:22:42;101712.53;;;3.07;100.00
21129;BME280;10722;51.910;8.352;2023-02-16T00:25:27;101714.59;;;3.12;100.00
21129;BME280;10722;51.910;8.352;2023-02-16T00:28:18;101712.81;;;3.38;100.00
21129;BME280;10722;51.910;8.352;2023-02-16T00:31:04;101700.72;;;3.22;100.00
21129;BME280;10722;51.910;8.352;2023-02-16T00:33:50;101694.06;;;3.11;100.00
21129;BME280;10722;51.910;8.352;2023-02-16T00:36:35;101682.94;;;3.10;100.00
21129;BME280;10722;51.910;8.352;2023-02-16T00:39:21;101682.84;;;3.09;100.00
21129;BME280;10722;51.910;8.352;2023-02-16T00:42:17;101677.16;;;3.00;100.00
21129;BME280;10722;51.910;8.352;2023-02-16T00:45:03;101676.84;;;2.95;100.00
21129;BME280;10722;51.910;8.352;2023-02-16T00:47:50;101673.91;;;3.02;100.00
21129;BME280;10722;51.910;8.352;2023-02-16T00:50:36;101676.09;;;2.83;100.00
21129;BME280;10722;51.910;8.352;2023-02-16T00:53:21;101672.75;;;2.71;100.00
21129;BME280;10722;51.910;8.352;2023-02-16T00:56:10;101676.47;;;2.62;100.00
21129;BME280;10722;51.910;8.352;2023-02-16T00:58:57;101673.13;;;2.50;100.00
21129;BME280;10722;51.910;8.352;2023-02-16T01:01:43;101678.22;;;2.37;100.00
21129;BME280;10722;51.910;8.352;2023-02-16T01:04:28;101692.56;;;2.35;100.00
21129;BME280;10722;51.910;8.352;2023-02-16T01:07:15;101684.41;;;2.40;100.00
21129;BME280;10722;51.910;8.352;2023-02-16T01:10:02;101680.59;;;2.34;100.00
21129;BME280;10722;51.910;8.352;2023-02-16T01:12:48;101682.53;;;2.38;100.00
21129;BME280;10722;51.910;8.352;2023-02-16T01:15:34;101684.22;;;2.37;100.00
21129;BME280;10722;51.910;8.352;2023-02-16T01:18:20;101678.50;;;2.41;100.00
21129;BME280;10722;51.910;8.352;2023-02-16T01:21:06;101672.53;;;2.41;100.00
21129;BME280;10722;51.910;8.352;2023-02-16T01:23:51;101671.25;;;2.47;100.00
21129;BME280;10722;51.910;8.352;2023-02-16T01:26:38;101673.78;;;2.47;100.00
21129;BME280;10722;51.910;8.352;2023-02-16T01:29:24;101668.41;;;2.43;100.00
21129;BME280;10722;51.910;8.352;2023-02-16T01:32:11;101665.66;;;2.40;100.00
21129;BME280;10722;51.910;8.352;2023-02-16T01:34:57;101666.63;;;2.42;100.00
21129;BME280;10722;51.910;8.352;2023-02-16T01:37:42;101678.81;;;2.46;100.00
21129;BME280;10722;51.910;8.352;2023-02-16T01:43:25;101684.53;;;2.55;100.00
21129;BME280;10722;51.910;8.352;2023-02-16T01:46:15;101690.50;;;2.56;100.00
21129;BME280;10722;51.910;8.352;2023-02-16T01:49:02;101666.53;;;2.80;100.00
21129;BME280;10722;51.910;8.352;2023-02-16T01:51:55;101669.47;;;2.73;100.00
21129;BME280;10722;51.910;8.352;2023-02-16T01:54:49;101658.19;;;2.43;100.00
21129;BME280;10722;51.910;8.352;2023-02-16T01:57:48;101664.50;;;2.48;100.00
21129;BME280;10722;51.910;8.352;2023-02-16T02:03:37;101647.63;;;2.25;100.00
21129;BME280;10722;51.910;8.352;2023-02-16T02:06:31;101648.34;;;2.22;100.00
21129;BME280;10722;51.910;8.352;2023-02-16T02:09:38;101637.44;;;2.12;100.00
21129;BME280;10722;51.910;8.352;2023-02-16T02:12:32;101632.88;;;1.94;100.00
21129;BME280;10722;51.910;8.352;2023-02-16T02:15:22;101652.25;;;1.79;100.00
21129;BME280;10722;51.910;8.352;2023-02-16T02:18:08;101660.09;;;1.82;100.00
21129;BME280;10722;51.910;8.352;2023-02-16T02:27:55;101644.78;;;1.82;100.00
21129;BME280;10722;51.910;8.352;2023-02-16T02:30:48;101653.78;;;1.64;100.00
21129;BME280;10722;51.910;8.352;2023-02-16T02:43:16;101657.34;;;1.54;100.00
21129;BME280;10722;51.910;8.352;2023-02-16T02:46:19;101651.91;;;1.74;100.00
21129;BME280;10722;51.910;8.352;2023-02-16T02:49:07;101652.03;;;1.51;100.00
21129;BME280;10722;51.910;8.352;2023-02-16T02:51:53;101661.81;;;1.45;100.00
21129;BME280;10722;51.910;8.352;2023-02-16T02:54:39;101666.81;;;1.31;100.00
21129;BME280;10722;51.910;8.352;2023-02-16T02:57:38;101662.72;;;1.33;100.00
21129;BME280;10722;51.910;8.352;2023-02-16T03:00:37;101668.16;;;1.26;100.00
21129;BME280;10722;51.910;8.352;2023-02-16T03:03:35;101663.53;;;1.32;100.00
21129;BME280;10722;51.910;8.352;2023-02-16T03:06:33;101664.56;;;1.48;100.00
21129;BME280;10722;51.910;8.352;2023-02-16T03:09:19;101654.16;;;1.45;100.00
21129;BME280;10722;51.910;8.352;2023-02-16T03:12:05;101656.50;;;1.42;100.00
21129;BME280;10722;51.910;8.352;2023-02-16T03:14:58;101653.09;;;1.29;100.00
21129;BME280;10722;51.910;8.352;2023-02-16T03:17:44;101658.88;;;1.27;100.00
21129;BME280;10722;51.910;8.352;2023-02-16T03:20:30;101655.22;;;1.23;100.00
21129;BME280;10722;51.910;8.352;2023-02-16T03:23:15;101655.53;;;1.28;100.00
21129;BME280;10722;51.910;8.352;2023-02-16T03:26:01;101655.50;;;1.40;100.00
21129;BME280;10722;51.910;8.352;2023-02-16T03:28:47;101652.13;;;1.27;100.00
21129;BME280;10722;51.910;8.352;2023-02-16T03:31:34;101654.25;;;1.46;100.00
21129;BME280;10722;51.910;8.352;2023-02-16T03:34:21;101656.38;;;1.40;100.00
21129;BME280;10722;51.910;8.352;2023-02-16T03:37:06;101657.13;;;1.51;100.00
21129;BME280;10722;51.910;8.352;2023-02-16T03:39:52;101660.25;;;1.47;100.00
21129;BME280;10722;51.910;8.352;2023-02-16T03:42:37;101650.97;;;1.36;100.00
21129;BME280;10722;51.910;8.352;2023-02-16T03:45:23;101646.13;;;1.15;100.00
21129;BME280;10722;51.910;8.352;2023-02-16T03:48:08;101653.69;;;1.14;100.00
21129;BME280;10722;51.910;8.352;2023-02-16T03:50:54;101654.66;;;1.27;100.00
21129;BME280;10722;51.910;8.352;2023-02-16T03:53:38;101653.63;;;1.37;100.00
21129;BME280;10722;51.910;8.352;2023-02-16T03:56:24;101659.34;;;1.46;100.00
21129;BME280;10722;51.910;8.352;2023-02-16T03:59:09;101646.47;;;1.56;100.00
21129;BME280;10722;51.910;8.352;2023-02-16T04:01:54;101650.56;;;1.54;100.00
21129;BME280;10722;51.910;8.352;2023-02-16T04:04:39;101642.81;;;1.53;100.00
21129;BME280;10722;51.910;8.352;2023-02-16T04:07:25;101635.00;;;1.38;100.00
21129;BME280;10722;51.910;8.352;2023-02-16T04:10:10;101628.78;;;1.34;100.00
21129;BME280;10722;51.910;8.352;2023-02-16T04:12:55;101631.28;;;1.46;100.00
21129;BME280;10722;51.910;8.352;2023-02-16T04:15:41;101627.72;;;1.56;100.00
21129;BME280;10722;51.910;8.352;2023-02-16T04:18:26;101629.19;;;1.52;100.00
21129;BME280;10722;51.910;8.352;2023-02-16T04:21:11;101636.47;;;1.60;100.00
21129;BME280;10722;51.910;8.352;2023-02-16T04:23:56;101642.44;;;1.60;100.00
21129;BME280;10722;51.910;8.352;2023-02-16T04:26:41;101640.22;;;1.65;100.00
21129;BME280;10722;51.910;8.352;2023-02-16T04:29:26;101638.88;;;1.70;100.00
21129;BME280;10722;51.910;8.352;2023-02-16T04:32:12;101641.16;;;1.78;100.00
21129;BME280;10722;51.910;8.352;2023-02-16T04:34:57;101645.47;;;1.79;100.00
21129;BME280;10722;51.910;8.352;2023-02-16T04:37:43;101637.53;;;1.75;100.00
21129;BME280;10722;51.910;8.352;2023-02-16T04:40:28;101637.72;;;1.78;100.00
21129;BME280;10722;51.910;8.352;2023-02-16T04:43:13;101640.47;;;1.81;100.00
21129;BME280;10722;51.910;8.352;2023-02-16T04:45:58;101636.06;;;1.78;100.00
21129;BME280;10722;51.910;8.352;2023-02-16T04:48:44;101635.19;;;1.91;100.00
21129;BME280;10722;51.910;8.352;2023-02-16T04:51:29;101635.66;;;1.86;100.00
21129;BME280;10722;51.910;8.352;2023-02-16T04:54:15;101637.59;;;1.76;100.00
21129;BME280;10722;51.910;8.352;2023-02-16T04:57:00;101633.56;;;1.67;100.00
21129;BME280;10722;51.910;8.352;2023-02-16T04:59:46;101635.94;;;1.77;100.00
21129;BME280;10722;51.910;8.352;2023-02-16T05:02:32;101629.19;;;1.77;100.00
21129;BME280;10722;51.910;8.352;2023-02-16T05:05:17;101629.41;;;1.55;100.00
21129;BME280;10722;51.910;8.352;2023-02-16T05:08:02;101627.13;;;1.60;100.00
21129;BME280;10722;51.910;8.352;2023-02-16T05:10:47;101624.38;;;1.57;100.00
21129;BME280;10722;51.910;8.352;2023-02-16T05:13:33;101632.22;;;1.47;100.00
21129;BME280;10722;51.910;8.352;2023-02-16T05:16:21;101629.66;;;1.47;100.00
21129;BME280;10722;51.910;8.352;2023-02-16T05:19:07;101619.06;;;1.29;100.00
21129;BME280;10722;51.910;8.352;2023-02-16T05:21:52;101611.81;;;1.10;100.00
21129;BME280;10722;51.910;8.352;2023-02-16T05:24:37;101611.16;;;1.01;100.00
21129;BME280;10722;51.910;8.352;2023-02-16T05:27:25;101623.91;;;1.01;100.00
21129;BME280;10722;51.910;8.352;2023-02-16T05:30:11;101624.66;;;1.11;100.00
21129;BME280;10722;51.910;8.352;2023-02-16T05:32:56;101619.22;;;1.19;100.00
21129;BME280;10722;51.910;8.352;2023-02-16T05:35:42;101612.72;;;1.10;100.00
21129;BME280;10722;51.910;8.352;2023-02-16T05:38:27;101626.31;;;1.11;100.00
21129;BME280;10722;51.910;8.352;2023-02-16T05:41:12;101628.63;;;1.20;100.00
21129;BME280;10722;51.910;8.352;2023-02-16T05:43:59;101634.31;;;1.41;100.00
21129;BME280;10722;51.910;8.352;2023-02-16T05:46:45;101641.75;;;1.38;100.00
21129;BME280;10722;51.910;8.352;2023-02-16T05:49:30;101639.28;;;1.51;100.00
21129;BME280;10722;51.910;8.352;2023-02-16T05:52:15;101648.94;;;1.55;100.00
21129;BME280;10722;51.910;8.352;2023-02-16T05:55:01;101638.47;;;1.64;100.00
21129;BME280;10722;51.910;8.352;2023-02-16T05:57:46;101622.56;;;1.43;100.00
21129;BME280;10722;51.910;8.352;2023-02-16T06:00:32;101624.69;;;1.37;100.00
21129;BME280;10722;51.910;8.352;2023-02-16T06:03:17;101616.47;;;1.16;100.00
21129;BME280;10722;51.910;8.352;2023-02-16T06:06:03;101623.19;;;1.15;100.00
21129;BME280;10722;51.910;8.352;2023-02-16T06:08:49;101641.25;;;1.18;100.00
21129;BME280;10722;51.910;8.352;2023-02-16T06:11:35;101633.56;;;1.42;100.00
21129;BME280;10722;51.910;8.352;2023-02-16T06:14:20;101635.34;;;1.31;100.00
21129;BME280;10722;51.910;8.352;2023-02-16T06:17:05;101630.59;;;1.36;100.00
21129;BME280;10722;51.910;8.352;2023-02-16T06:19:51;101629.69;;;1.35;100.00
21129;BME280;10722;51.910;8.352;2023-02-16T06:22:36;101628.25;;;1.39;100.00
21129;BME280;10722;51.910;8.352;2023-02-16T06:25:20;101630.84;;;1.52;100.00
21129;BME280;10722;51.910;8.352;2023-02-16T06:28:06;101629.66;;;1.47;100.00
21129;BME280;10722;51.910;8.352;2023-02-16T06:30:51;101630.13;;;1.41;100.00
21129;BME280;10722;51.910;8.352;2023-02-16T06:33:36;101618.94;;;1.39;100.00
21129;BME280;10722;51.910;8.352;2023-02-16T06:36:22;101626.63;;;1.27;100.00
21129;BME280;10722;51.910;8.352;2023-02-16T06:39:08;101633.69;;;1.31;100.00
21129;BME280;10722;51.910;8.352;2023-02-16T06:41:54;101633.75;;;1.45;100.00
21129;BME280;10722;51.910;8.352;2023-02-16T06:44:39;101642.25;;;1.57;100.00
21129;BME280;10722;51.910;8.352;2023-02-16T06:47:24;101651.34;;;1.53;100.00
21129;BME280;10722;51.910;8.352;2023-02-16T06:50:10;101652.84;;;1.63;100.00
21129;BME280;10722;51.910;8.352;2023-02-16T06:52:55;101653.44;;;1.59;100.00
21129;BME280;10722;51.910;8.352;2023-02-16T06:55:40;101650.75;;;1.69;100.00
21129;BME280;10722;51.910;8.352;2023-02-16T06:58:26;101649.63;;;1.66;100.00
21129;BME280;10722;51.910;8.352;2023-02-16T07:01:11;101649.34;;;1.61;100.00
21129;BME280;10722;51.910;8.352;2023-02-16T07:03:57;101648.75;;;1.65;100.00
21129;BME280;10722;51.910;8.352;2023-02-16T07:06:43;101650.56;;;1.54;100.00
21129;BME280;10722;51.910;8.352;2023-02-16T07:09:27;101644.59;;;1.54;100.00
21129;BME280;10722;51.910;8.352;2023-02-16T07:12:13;101659.06;;;1.67;100.00
21129;BME280;10722;51.910;8.352;2023-02-16T07:14:58;101657.41;;;1.67;100.00
21129;BME280;10722;51.910;8.352;2023-02-16T07:17:44;101652.16;;;1.77;100.00
21129;BME280;10722;51.910;8.352;2023-02-16T07:20:29;101662.13;;;1.99;100.00
21129;BME280;10722;51.910;8.352;2023-02-16T07:23:14;101647.88;;;1.90;100.00
21129;BME280;10722;51.910;8.352;2023-02-16T07:25:59;101649.81;;;1.94;100.00
21129;BME280;10722;51.910;8.352;2023-02-16T07:28:44;101653.78;;;2.02;100.00
21129;BME280;10722;51.910;8.352;2023-02-16T07:31:30;101639.56;;;2.06;100.00
21129;BME280;10722;51.910;8.352;2023-02-16T07:34:15;101628.88;;;2.24;100.00
21129;BME280;10722;51.910;8.352;2023-02-16T07:37:01;101624.69;;;2.38;100.00
21129;BME280;10722;51.910;8.352;2023-02-16T07:39:46;101618.09;;;2.55;100.00
21129;BME280;10722;51.910;8.352;2023-02-16T07:42:32;101622.13;;;2.78;100.00
21129;BME280;10722;51.910;8.352;2023-02-16T07:45:17;101625.28;;;2.87;100.00
21129;BME280;10722;51.910;8.352;2023-02-16T07:48:03;101621.00;;;3.01;100.00
21129;BME280;10722;51.910;8.352;2023-02-16T07:50:48;101621.97;;;3.17;100.00
21129;BME280;10722;51.910;8.352;2023-02-16T07:53:33;101612.28;;;3.26;100.00
21129;BME280;10722;51.910;8.352;2023-02-16T07:56:23;101604.63;;;3.26;100.00
21129;BME280;10722;51.910;8.352;2023-02-16T07:59:08;101613.97;;;3.25;100.00
21129;BME280;10722;51.910;8.352;2023-02-16T08:01:54;101611.69;;;3.30;100.00
21129;BME280;10722;51.910;8.352;2023-02-16T08:04:39;101608.22;;;3.29;100.00
21129;BME280;10722;51.910;8.352;2023-02-16T08:07:24;101592.84;;;3.43;100.00
21129;BME280;10722;51.910;8.352;2023-02-16T08:10:09;101584.19;;;3.41;100.00
21129;BME280;10722;51.910;8.352;2023-02-16T08:12:55;101580.34;;;3.47;100.00
21129;BME280;10722;51.910;8.352;2023-02-16T08:15:43;101572.66;;;3.47;100.00
21129;BME280;10722;51.910;8.352;2023-02-16T08:18:29;101575.75;;;3.56;100.00
21129;BME280;10722;51.910;8.352;2023-02-16T08:21:20;101576.81;;;3.60;100.00
21129;BME280;10722;51.910;8.352;2023-02-16T08:24:07;101583.19;;;3.67;100.00
21129;BME280;10722;51.910;8.352;2023-02-16T08:26:52;101572.88;;;3.65;100.00
21129;BME280;10722;51.910;8.352;2023-02-16T08:29:38;101573.16;;;3.70;99.84
21129;BME280;10722;51.910;8.352;2023-02-16T08:32:23;101564.66;;;3.71;99.43
21129;BME280;10722;51.910;8.352;2023-02-16T08:35:09;101563.09;;;3.73;99.52
21129;BME280;10722;51.910;8.352;2023-02-16T08:37:54;101565.56;;;3.86;99.88
21129;BME280;10722;51.910;8.352;2023-02-16T08:40:46;101563.09;;;3.88;99.21
21129;BME280;10722;51.910;8.352;2023-02-16T08:43:32;101560.16;;;3.96;98.83
21129;BME280;10722;51.910;8.352;2023-02-16T08:46:17;101554.44;;;4.00;98.44
21129;BME280;10722;51.910;8.352;2023-02-16T08:49:02;101552.84;;;4.02;98.01
21129;BME280;10722;51.910;8.352;2023-02-16T08:51:53;101549.03;;;4.11;98.16
21129;BME280;10722;51.910;8.352;2023-02-16T08:54:39;101540.75;;;4.15;97.75
21129;BME280;10722;51.910;8.352;2023-02-16T08:57:24;101544.84;;;4.27;97.49
21129;BME280;10722;51.910;8.352;2023-02-16T09:00:10;101546.72;;;4.30;97.21
21129;BME280;10722;51.910;8.352;2023-02-16T09:02:57;101547.97;;;4.37;96.80
21129;BME280;10722;51.910;8.352;2023-02-16T09:05:46;101537.94;;;4.41;96.85
21129;BME280;10722;51.910;8.352;2023-02-16T09:08:32;101539.25;;;4.49;96.16
21129;BME280;10722;51.910;8.352;2023-02-16T09:11:19;101528.47;;;4.55;95.57
21129;BME280;10722;51.910;8.352;2023-02-16T09:14:04;101517.50;;;4.58;94.98
21129;BME280;10722;51.910;8.352;2023-02-16T09:16:49;101514.31;;;4.62;94.44
21129;BME280;10722;51.910;8.352;2023-02-16T09:19:35;101505.44;;;4.71;93.60
21129;BME280;10722;51.910;8.352;2023-02-16T09:22:20;101500.84;;;4.66;93.32
21129;BME280;10722;51.910;8.352;2023-02-16T09:25:05;101523.81;;;4.64;93.47
21129;BME280;10722;51.910;8.352;2023-02-16T09:27:51;101519.13;;;4.72;92.96
21129;BME280;10722;51.910;8.352;2023-02-16T09:30:38;101516.16;;;4.81;92.38
21129;BME280;10722;51.910;8.352;2023-02-16T09:33:24;101515.59;;;4.86;92.61
21129;BME280;10722;51.910;8.352;2023-02-16T09:36:10;101532.84;;;5.05;92.07
21129;BME280;10722;51.910;8.352;2023-02-16T09:38:56;101534.16;;;5.13;91.44
21129;BME280;10722;51.910;8.352;2023-02-16T09:42:05;101520.91;;;5.22;91.33
21129;BME280;10722;51.910;8.352;2023-02-16T09:45:07;101532.19;;;5.42;91.34
21129;BME280;10722;51.910;8.352;2023-02-16T09:47:54;101521.50;;;5.51;90.98
21129;BME280;10722;51.910;8.352;2023-02-16T09:50:40;101515.91;;;5.58;90.31
21129;BME280;10722;51.910;8.352;2023-02-16T09:53:40;101498.78;;;5.75;89.75
21129;BME280;10722;51.910;8.352;2023-02-16T09:56:31;101490.97;;;5.91;89.05
21129;BME280;10722;51.910;8.352;2023-02-16T10:11:40;101477.53;;;5.95;87.13
21129;BME280;10722;51.910;8.352;2023-02-16T10:14:37;101479.16;;;6.11;87.31
21129;BME280;10722;51.910;8.352;2023-02-16T10:17:30;101490.16;;;6.26;87.15
21129;BME280;10722;51.910;8.352;2023-02-16T10:20:22;101479.78;;;6.43;86.64
21129;BME280;10722;51.910;8.352;2023-02-16T10:26:40;101476.84;;;6.92;85.40
21129;BME280;10722;51.910;8.352;2023-02-16T10:29:27;101458.56;;;7.05;84.64
21129;BME280;10722;51.910;8.352;2023-02-16T10:32:21;101449.00;;;7.22;83.58
21129;BME280;10722;51.910;8.352;2023-02-16T10:35:15;101447.22;;;7.40;83.31
21129;BME280;10722;51.910;8.352;2023-02-16T10:41:26;101441.75;;;7.54;82.78
21129;BME280;10722;51.910;8.352;2023-02-16T10:44:20;101447.00;;;7.57;82.51
21129;BME280;10722;51.910;8.352;2023-02-16T10:47:16;101451.81;;;7.69;83.13
21129;BME280;10722;51.910;8.352;2023-02-16T10:50:19;101453.06;;;7.78;82.82
21129;BME280;10722;51.910;8.352;2023-02-16T10:53:09;101444.38;;;7.76;82.29
21129;BME280;10722;51.910;8.352;2023-02-16T10:55:57;101442.25;;;7.87;81.85
21129;BME280;10722;51.910;8.352;2023-02-16T10:58:43;101440.53;;;7.88;82.09
21129;BME280;10722;51.910;8.352;2023-02-16T11:01:36;101451.16;;;7.95;82.58
21129;BME280;10722;51.910;8.352;2023-02-16T11:04:39;101449.00;;;8.06;82.33
21129;BME280;10722;51.910;8.352;2023-02-16T11:07:27;101450.19;;;8.37;82.09
21129;BME280;10722;51.910;8.352;2023-02-16T11:10:25;101438.50;;;8.45;81.57
21129;BME280;10722;51.910;8.352;2023-02-16T11:13:30;101429.84;;;8.67;81.24
21129;BME280;10722;51.910;8.352;2023-02-16T11:16:21;101416.84;;;8.88;80.25
21129;BME280;10722;51.910;8.352;2023-02-16T11:19:22;101405.56;;;9.10;79.24
21129;BME280;10722;51.910;8.352;2023-02-16T11:22:24;101368.00;;;9.18;77.51
21129;BME280;10722;51.910;8.352;2023-02-16T11:28:02;101354.53;;;9.28;76.25
21129;BME280;10722;51.910;8.352;2023-02-16T11:30:47;101342.38;;;9.24;75.77
21129;BME280;10722;51.910;8.352;2023-02-16T11:33:33;101328.44;;;9.19;75.34
21129;BME280;10722;51.910;8.352;2023-02-16T11:36:38;101357.66;;;9.18;76.06
21129;BME280;10722;51.910;8.352;2023-02-16T11:39:28;101352.38;;;9.15;75.72
21129;BME280;10722;51.910;8.352;2023-02-16T11:42:30;101364.47;;;9.16;76.01
21129;BME280;10722;51.910;8.352;2023-02-16T11:45:43;101368.09;;;9.21;76.33
21129;BME280;10722;51.910;8.352;2023-02-16T11:48:31;101365.53;;;9.23;76.19
21129;BME280;10722;51.910;8.352;2023-02-16T11:51:30;101370.13;;;9.31;76.22
21129;BME280;10722;51.910;8.352;2023-02-16T11:54:16;101378.03;;;9.36;77.03
21129;BME280;10722;51.910;8.352;2023-02-16T11:57:06;101377.25;;;9.38;75.94
21129;BME280;10722;51.910;8.352;2023-02-16T11:59:51;101362.53;;;9.36;76.09
21129;BME280;10722;51.910;8.352;2023-02-16T12:15:05;101360.50;;;9.53;75.52
21129;BME280;10722;51.910;8.352;2023-02-16T12:21:07;101356.28;;;9.55;75.53
21129;BME280;10722;51.910;8.352;2023-02-16T12:24:03;101339.41;;;9.66;74.75
21129;BME280;10722;51.910;8.352;2023-02-16T12:26:59;101349.47;;;9.85;75.30
21129;BME280;10722;51.910;8.352;2023-02-16T12:30:06;101346.31;;;9.96;74.79
21129;BME280;10722;51.910;8.352;2023-02-16T12:33:10;101327.53;;;10.01;74.33
21129;BME280;10722;51.910;8.352;2023-02-16T12:37:03;101298.84;;;9.92;73.68
21129;BME280;10722;51.910;8.352;2023-02-16T12:39:29;101305.56;;;9.87;73.84
21129;BME280;10722;51.910;8.352;2023-02-16T12:45:17;101324.41;;;9.83;74.18
21129;BME280;10722;51.910;8.352;2023-02-16T12:51:02;101336.06;;;9.70;75.05
21129;BME280;10722;51.910;8.352;2023-02-16T12:56:44;101349.38;;;10.11;75.72
21129;BME280;10722;51.910;8.352;2023-02-16T12:59:34;101326.19;;;10.14;74.87
21129;BME280;10722;51.910;8.352;2023-02-16T13:02:26;101319.16;;;10.10;74.92
21129;BME280;10722;51.910;8.352;2023-02-16T13:05:17;101307.47;;;9.93;74.87
21129;BME280;10722;51.910;8.352;2023-02-16T13:08:14;101312.53;;;9.90;74.95
21129;BME280;10722;51.910;8.352;2023-02-16T13:11:13;101321.88;;;9.84;74.97
21129;BME280;10722;51.910;8.352;2023-02-16T13:14:05;101313.09;;;9.79;75.13
21129;BME280;10722;51.910;8.352;2023-02-16T13:17:03;101332.78;;;9.74;75.66
21129;BME280;10722;51.910;8.352;2023-02-16T13:19:52;101329.94;;;9.67;76.08
21129;BME280;10722;51.910;8.352;2023-02-16T13:44:13;101304.63;;;9.55;77.29
21129;BME280;10722;51.910;8.352;2023-02-16T13:47:01;101292.84;;;9.64;77.45
21129;BME280;10722;51.910;8.352;2023-02-16T13:49:47;101314.38;;;9.65;77.98
21129;BME280;10722;51.910;8.352;2023-02-16T13:52:38;101314.34;;;9.63;78.92
21129;BME280;10722;51.910;8.352;2023-02-16T13:55:30;101322.97;;;9.64;79.61
21129;BME280;10722;51.910;8.352;2023-02-16T14:09:51;101343.91;;;9.73;81.95
21129;BME280;10722;51.910;8.352;2023-02-16T14:12:38;101359.56;;;9.78;82.66
21129;BME280;10722;51.910;8.352;2023-02-16T14:15:23;101360.09;;;9.95;82.94
21129;BME280;10722;51.910;8.352;2023-02-16T14:18:32;101361.13;;;10.28;82.69
21129;BME280;10722;51.910;8.352;2023-02-16T14:21:31;101364.63;;;10.30;82.72
21129;BME280;10722;51.910;8.352;2023-02-16T14:24:32;101356.91;;;9.75;83.02
21129;BME280;10722;51.910;8.352;2023-02-16T14:27:39;101369.03;;;9.50;83.75
21129;BME280;10722;51.910;8.352;2023-02-16T14:30:35;101374.34;;;9.55;85.03
21129;BME280;10722;51.910;8.352;2023-02-16T14:36:22;101399.84;;;9.44;86.20
21129;BME280;10722;51.910;8.352;2023-02-16T14:39:10;101394.50;;;9.39;86.54
21129;BME280;10722;51.910;8.352;2023-02-16T14:42:13;101395.09;;;9.31;86.70
21129;BME280;10722;51.910;8.352;2023-02-16T14:45:29;101390.88;;;9.34;87.26
21129;BME280;10722;51.910;8.352;2023-02-16T14:54:40;101393.25;;;9.27;88.15
21129;BME280;10722;51.910;8.352;2023-02-16T14:57:44;101405.41;;;9.31;88.55
21129;BME280;10722;51.910;8.352;2023-02-16T15:00:50;101405.22;;;9.25;88.96
21129;BME280;10722;51.910;8.352;2023-02-16T15:06:37;101407.03;;;9.27;89.68
21129;BME280;10722;51.910;8.352;2023-02-16T15:09:30;101409.50;;;9.24;90.01
21129;BME280;10722;51.910;8.352;2023-02-16T15:12:27;101404.13;;;9.18;90.40
21129;BME280;10722;51.910;8.352;2023-02-16T15:15:19;101406.75;;;9.19;90.68
21129;BME280;10722;51.910;8.352;2023-02-16T15:18:12;101408.28;;;9.14;90.63
21129;BME280;10722;51.910;8.352;2023-02-16T15:20:59;101396.31;;;9.16;90.72
21129;BME280;10722;51.910;8.352;2023-02-16T15:23:56;101402.22;;;9.12;90.89
21129;BME280;10722;51.910;8.352;2023-02-16T15:26:52;101385.84;;;9.12;91.18
21129;BME280;10722;51.910;8.352;2023-02-16T15:29:40;101388.41;;;9.12;91.54
21129;BME280;10722;51.910;8.352;2023-02-16T15:32:26;101392.69;;;9.11;91.09
21129;BME280;10722;51.910;8.352;2023-02-16T15:35:12;101389.16;;;9.08;91.34
21129;BME280;10722;51.910;8.352;2023-02-16T15:41:01;101386.38;;;9.02;92.44
21129;BME280;10722;51.910;8.352;2023-02-16T15:43:49;101379.44;;;9.01;92.77
21129;BME280;10722;51.910;8.352;2023-02-16T15:46:40;101393.16;;;9.00;92.91
21129;BME280;10722;51.910;8.352;2023-02-16T15:49:28;101386.38;;;9.02;93.00
21129;BME280;10722;51.910;8.352;2023-02-16T15:52:22;101387.22;;;9.02;92.80
21129;BME280;10722;51.910;8.352;2023-02-16T15:55:11;101384.84;;;9.08;93.17
21129;BME280;10722;51.910;8.352;2023-02-16T15:57:57;101377.78;;;9.03;92.95
21129;BME280;10722;51.910;8.352;2023-02-16T16:00:43;101385.69;;;9.07;93.31
21129;BME280;10722;51.910;8.352;2023-02-16T16:03:29;101383.00;;;9.04;93.49
21129;BME280;10722;51.910;8.352;2023-02-16T16:06:14;101385.41;;;9.00;93.61
21129;BME280;10722;51.910;8.352;2023-02-16T16:09:00;101385.41;;;9.00;93.46
21129;BME280;10722;51.910;8.352;2023-02-16T16:11:48;101384.56;;;8.99;93.82
21129;BME280;10722;51.910;8.352;2023-02-16T16:14:36;101382.66;;;8.95;94.06
21129;BME280;10722;51.910;8.352;2023-02-16T16:17:29;101392.22;;;8.97;94.33
21129;BME280;10722;51.910;8.352;2023-02-16T16:20:36;101386.97;;;8.94;94.70
21129;BME280;10722;51.910;8.352;2023-02-16T16:23:26;101391.16;;;8.91;94.91
21129;BME280;10722;51.910;8.352;2023-02-16T16:26:20;101398.88;;;8.91;95.16
21129;BME280;10722;51.910;8.352;2023-02-16T16:32:18;101399.06;;;8.95;94.94
21129;BME280;10722;51.910;8.352;2023-02-16T16:35:21;101393.16;;;9.00;94.55
21129;BME280;10722;51.910;8.352;2023-02-16T16:38:27;101386.16;;;8.95;94.88
21129;BME280;10722;51.910;8.352;2023-02-16T16:41:25;101391.19;;;8.92;95.39
21129;BME280;10722;51.910;8.352;2023-02-16T16:44:26;101389.34;;;8.88;95.42
21129;BME280;10722;51.910;8.352;2023-02-16T16:52:55;101386.09;;;8.94;95.69
21129;BME280;10722;51.910;8.352;2023-02-16T16:55:40;101382.63;;;8.93;95.92